Terminal Aerodrome Forecast
Issued by NWS Sioux Falls, SD

Home | Current Version | Previous Version | Graphics & Text | Print | Product List | Glossary On
Versions: 1 2 3 4 5 6 7 8 9 10 11 12 13 14 15 16 17 18
000
FTUS43 KFSD 281857 AAA
TAFHON
TAF AMD
KHON 281857Z 2819/2918 13009KT P6SM OVC012
     FM290300 30005KT P6SM SCT025 OVC150
     FM291100 30004KT 2SM BR OVC005
     FM291500 31007KT P6SM SCT015=

USA.gov is the U.S. government's official web portal to all federal, state and local government web resources and services.